sensor_id;sensor_type;location;lat;lon;timestamp;P1;durP1;ratioP1;P2;durP2;ratioP2
76729;SDS011;65653;53.106;18.046;2023-04-24T00:01:21;10.10;;;7.40;;
76729;SDS011;65653;53.106;18.046;2023-04-24T00:03:48;11.60;;;8.30;;
76729;SDS011;65653;53.106;18.046;2023-04-24T00:06:14;8.90;;;7.80;;
76729;SDS011;65653;53.106;18.046;2023-04-24T00:08:43;12.60;;;9.20;;
76729;SDS011;65653;53.106;18.046;2023-04-24T00:11:10;14.30;;;9.00;;
76729;SDS011;65653;53.106;18.046;2023-04-24T00:13:37;10.50;;;9.00;;
76729;SDS011;65653;53.106;18.046;2023-04-24T00:16:04;9.30;;;7.20;;
76729;SDS011;65653;53.106;18.046;2023-04-24T00:18:31;12.00;;;8.60;;
76729;SDS011;65653;53.106;18.046;2023-04-24T00:20:58;12.90;;;9.70;;
76729;SDS011;65653;53.106;18.046;2023-04-24T00:23:25;9.90;;;8.40;;
76729;SDS011;65653;53.106;18.046;2023-04-24T00:25:51;13.70;;;9.90;;
76729;SDS011;65653;53.106;18.046;2023-04-24T00:28:19;12.00;;;9.70;;
76729;SDS011;65653;53.106;18.046;2023-04-24T00:30:45;9.90;;;8.20;;
76729;SDS011;65653;53.106;18.046;2023-04-24T00:33:12;10.30;;;8.80;;
76729;SDS011;65653;53.106;18.046;2023-04-24T00:35:38;12.10;;;7.90;;
76729;SDS011;65653;53.106;18.046;2023-04-24T00:38:05;12.00;;;9.20;;
76729;SDS011;65653;53.106;18.046;2023-04-24T00:40:31;12.20;;;8.80;;
76729;SDS011;65653;53.106;18.046;2023-04-24T00:42:58;12.20;;;9.20;;
76729;SDS011;65653;53.106;18.046;2023-04-24T00:45:25;15.00;;;10.60;;
76729;SDS011;65653;53.106;18.046;2023-04-24T00:47:52;16.30;;;10.60;;
76729;SDS011;65653;53.106;18.046;2023-04-24T00:50:20;16.20;;;10.70;;
76729;SDS011;65653;53.106;18.046;2023-04-24T00:52:47;14.70;;;9.80;;
76729;SDS011;65653;53.106;18.046;2023-04-24T00:55:14;14.30;;;10.20;;
76729;SDS011;65653;53.106;18.046;2023-04-24T00:57:41;21.50;;;10.90;;
76729;SDS011;65653;53.106;18.046;2023-04-24T01:00:08;20.30;;;10.00;;
76729;SDS011;65653;53.106;18.046;2023-04-24T01:05:07;10.10;;;5.70;;
76729;SDS011;65653;53.106;18.046;2023-04-24T01:07:34;9.90;;;6.90;;
76729;SDS011;65653;53.106;18.046;2023-04-24T01:10:02;10.70;;;6.60;;
76729;SDS011;65653;53.106;18.046;2023-04-24T01:12:29;15.60;;;9.10;;
76729;SDS011;65653;53.106;18.046;2023-04-24T01:14:56;10.90;;;8.00;;
76729;SDS011;65653;53.106;18.046;2023-04-24T01:17:23;9.30;;;7.10;;
76729;SDS011;65653;53.106;18.046;2023-04-24T01:19:50;15.00;;;9.30;;
76729;SDS011;65653;53.106;18.046;2023-04-24T01:22:19;13.90;;;9.60;;
76729;SDS011;65653;53.106;18.046;2023-04-24T01:24:46;11.40;;;8.10;;
76729;SDS011;65653;53.106;18.046;2023-04-24T01:27:13;9.00;;;5.90;;
76729;SDS011;65653;53.106;18.046;2023-04-24T01:29:40;10.10;;;6.60;;
76729;SDS011;65653;53.106;18.046;2023-04-24T01:32:07;14.10;;;8.80;;
76729;SDS011;65653;53.106;18.046;2023-04-24T01:34:34;9.90;;;5.90;;
76729;SDS011;65653;53.106;18.046;2023-04-24T01:37:01;10.40;;;7.80;;
76729;SDS011;65653;53.106;18.046;2023-04-24T01:39:27;11.80;;;7.90;;
76729;SDS011;65653;53.106;18.046;2023-04-24T01:41:55;11.10;;;7.60;;
76729;SDS011;65653;53.106;18.046;2023-04-24T01:44:22;9.20;;;6.40;;
76729;SDS011;65653;53.106;18.046;2023-04-24T01:46:49;14.30;;;8.30;;
76729;SDS011;65653;53.106;18.046;2023-04-24T01:49:16;15.30;;;10.30;;
76729;SDS011;65653;53.106;18.046;2023-04-24T01:51:43;15.20;;;10.10;;
76729;SDS011;65653;53.106;18.046;2023-04-24T01:54:10;12.40;;;8.50;;
76729;SDS011;65653;53.106;18.046;2023-04-24T01:56:41;12.90;;;10.00;;
76729;SDS011;65653;53.106;18.046;2023-04-24T02:06:35;17.20;;;10.50;;
76729;SDS011;65653;53.106;18.046;2023-04-24T02:09:02;14.50;;;10.80;;
76729;SDS011;65653;53.106;18.046;2023-04-24T02:11:30;9.40;;;6.60;;
76729;SDS011;65653;53.106;18.046;2023-04-24T02:13:57;8.90;;;7.00;;
76729;SDS011;65653;53.106;18.046;2023-04-24T02:16:23;11.10;;;8.10;;
76729;SDS011;65653;53.106;18.046;2023-04-24T02:18:50;14.40;;;7.60;;
76729;SDS011;65653;53.106;18.046;2023-04-24T02:21:17;8.70;;;6.00;;
76729;SDS011;65653;53.106;18.046;2023-04-24T02:23:43;8.80;;;6.60;;
76729;SDS011;65653;53.106;18.046;2023-04-24T02:26:10;12.80;;;7.50;;
76729;SDS011;65653;53.106;18.046;2023-04-24T02:28:37;10.00;;;7.50;;
76729;SDS011;65653;53.106;18.046;2023-04-24T02:31:03;14.20;;;9.60;;
76729;SDS011;65653;53.106;18.046;2023-04-24T02:33:31;14.30;;;11.60;;
76729;SDS011;65653;53.106;18.046;2023-04-24T02:35:57;17.60;;;9.40;;
76729;SDS011;65653;53.106;18.046;2023-04-24T02:38:24;11.90;;;8.50;;
76729;SDS011;65653;53.106;18.046;2023-04-24T02:40:50;13.30;;;9.60;;
76729;SDS011;65653;53.106;18.046;2023-04-24T02:43:17;14.40;;;9.30;;
76729;SDS011;65653;53.106;18.046;2023-04-24T02:45:43;12.70;;;8.90;;
76729;SDS011;65653;53.106;18.046;2023-04-24T02:48:10;9.40;;;6.40;;
76729;SDS011;65653;53.106;18.046;2023-04-24T02:50:37;15.10;;;11.40;;
76729;SDS011;65653;53.106;18.046;2023-04-24T02:53:03;16.10;;;10.90;;
76729;SDS011;65653;53.106;18.046;2023-04-24T02:55:30;12.60;;;8.20;;
76729;SDS011;65653;53.106;18.046;2023-04-24T02:57:57;9.10;;;7.20;;
76729;SDS011;65653;53.106;18.046;2023-04-24T03:00:23;13.10;;;10.00;;
76729;SDS011;65653;53.106;18.046;2023-04-24T03:02:50;18.80;;;11.40;;
76729;SDS011;65653;53.106;18.046;2023-04-24T03:05:17;12.70;;;8.70;;
76729;SDS011;65653;53.106;18.046;2023-04-24T03:07:43;14.20;;;9.90;;
76729;SDS011;65653;53.106;18.046;2023-04-24T03:10:10;14.80;;;9.70;;
76729;SDS011;65653;53.106;18.046;2023-04-24T03:12:36;10.70;;;7.80;;
76729;SDS011;65653;53.106;18.046;2023-04-24T03:15:03;14.40;;;9.90;;
76729;SDS011;65653;53.106;18.046;2023-04-24T03:17:29;11.50;;;7.20;;
76729;SDS011;65653;53.106;18.046;2023-04-24T03:19:56;10.70;;;8.00;;
76729;SDS011;65653;53.106;18.046;2023-04-24T03:22:22;18.50;;;9.60;;
76729;SDS011;65653;53.106;18.046;2023-04-24T03:24:49;13.70;;;9.80;;
76729;SDS011;65653;53.106;18.046;2023-04-24T03:27:16;11.60;;;8.60;;
76729;SDS011;65653;53.106;18.046;2023-04-24T03:29:42;13.90;;;9.70;;
76729;SDS011;65653;53.106;18.046;2023-04-24T03:32:09;17.50;;;11.10;;
76729;SDS011;65653;53.106;18.046;2023-04-24T03:34:36;18.00;;;11.10;;
76729;SDS011;65653;53.106;18.046;2023-04-24T03:37:02;16.50;;;9.90;;
76729;SDS011;65653;53.106;18.046;2023-04-24T03:39:29;13.90;;;9.90;;
76729;SDS011;65653;53.106;18.046;2023-04-24T03:41:55;13.50;;;9.10;;
76729;SDS011;65653;53.106;18.046;2023-04-24T03:44:22;14.70;;;10.90;;
76729;SDS011;65653;53.106;18.046;2023-04-24T03:46:48;14.50;;;9.70;;
76729;SDS011;65653;53.106;18.046;2023-04-24T03:49:15;15.30;;;10.00;;
76729;SDS011;65653;53.106;18.046;2023-04-24T03:51:41;12.10;;;8.10;;
76729;SDS011;65653;53.106;18.046;2023-04-24T03:54:08;11.90;;;7.90;;
76729;SDS011;65653;53.106;18.046;2023-04-24T03:56:34;11.50;;;7.20;;
76729;SDS011;65653;53.106;18.046;2023-04-24T03:59:01;12.80;;;7.90;;
76729;SDS011;65653;53.106;18.046;2023-04-24T04:01:28;15.30;;;9.60;;
76729;SDS011;65653;53.106;18.046;2023-04-24T04:03:56;10.60;;;7.40;;
76729;SDS011;65653;53.106;18.046;2023-04-24T04:06:23;15.50;;;10.60;;
76729;SDS011;65653;53.106;18.046;2023-04-24T04:08:50;15.10;;;8.40;;
76729;SDS011;65653;53.106;18.046;2023-04-24T04:11:17;10.00;;;7.60;;
76729;SDS011;65653;53.106;18.046;2023-04-24T04:13:43;10.40;;;7.80;;
76729;SDS011;65653;53.106;18.046;2023-04-24T04:16:10;15.60;;;10.30;;
76729;SDS011;65653;53.106;18.046;2023-04-24T04:18:37;14.50;;;9.90;;
76729;SDS011;65653;53.106;18.046;2023-04-24T04:21:03;14.40;;;9.40;;
76729;SDS011;65653;53.106;18.046;2023-04-24T04:23:30;13.10;;;9.50;;
76729;SDS011;65653;53.106;18.046;2023-04-24T04:25:58;12.30;;;8.20;;
76729;SDS011;65653;53.106;18.046;2023-04-24T04:28:24;13.20;;;9.50;;
76729;SDS011;65653;53.106;18.046;2023-04-24T04:30:52;12.60;;;8.70;;
76729;SDS011;65653;53.106;18.046;2023-04-24T04:33:29;11.60;;;9.00;;
76729;SDS011;65653;53.106;18.046;2023-04-24T04:36:11;8.70;;;5.80;;
76729;SDS011;65653;53.106;18.046;2023-04-24T04:38:38;12.80;;;7.90;;
76729;SDS011;65653;53.106;18.046;2023-04-24T04:41:33;12.80;;;8.80;;
76729;SDS011;65653;53.106;18.046;2023-04-24T04:44:06;12.10;;;7.80;;
76729;SDS011;65653;53.106;18.046;2023-04-24T04:46:35;16.10;;;9.90;;
76729;SDS011;65653;53.106;18.046;2023-04-24T04:49:03;16.40;;;9.00;;
76729;SDS011;65653;53.106;18.046;2023-04-24T04:51:30;11.20;;;8.20;;
76729;SDS011;65653;53.106;18.046;2023-04-24T04:53:57;11.90;;;7.90;;
76729;SDS011;65653;53.106;18.046;2023-04-24T04:56:23;12.50;;;8.20;;
76729;SDS011;65653;53.106;18.046;2023-04-24T04:58:51;13.20;;;9.10;;
76729;SDS011;65653;53.106;18.046;2023-04-24T05:01:17;15.00;;;8.40;;
76729;SDS011;65653;53.106;18.046;2023-04-24T05:03:44;12.40;;;9.30;;
76729;SDS011;65653;53.106;18.046;2023-04-24T05:06:10;10.90;;;8.20;;
76729;SDS011;65653;53.106;18.046;2023-04-24T05:08:37;14.40;;;9.40;;
76729;SDS011;65653;53.106;18.046;2023-04-24T05:11:03;12.20;;;8.40;;
76729;SDS011;65653;53.106;18.046;2023-04-24T05:13:30;11.30;;;8.20;;
76729;SDS011;65653;53.106;18.046;2023-04-24T05:15:57;13.70;;;8.80;;
76729;SDS011;65653;53.106;18.046;2023-04-24T05:18:24;10.90;;;8.20;;
76729;SDS011;65653;53.106;18.046;2023-04-24T05:20:50;11.50;;;8.20;;
76729;SDS011;65653;53.106;18.046;2023-04-24T05:23:17;9.70;;;6.70;;
76729;SDS011;65653;53.106;18.046;2023-04-24T05:25:43;10.80;;;7.50;;
76729;SDS011;65653;53.106;18.046;2023-04-24T05:28:10;11.00;;;7.70;;
76729;SDS011;65653;53.106;18.046;2023-04-24T05:30:37;11.40;;;7.20;;
76729;SDS011;65653;53.106;18.046;2023-04-24T05:33:03;11.00;;;8.30;;
76729;SDS011;65653;53.106;18.046;2023-04-24T05:35:30;12.50;;;7.30;;
76729;SDS011;65653;53.106;18.046;2023-04-24T05:37:57;8.10;;;6.30;;
76729;SDS011;65653;53.106;18.046;2023-04-24T05:40:23;12.00;;;7.70;;
76729;SDS011;65653;53.106;18.046;2023-04-24T05:42:50;7.60;;;6.10;;
76729;SDS011;65653;53.106;18.046;2023-04-24T05:45:16;10.10;;;7.50;;
76729;SDS011;65653;53.106;18.046;2023-04-24T05:47:43;10.10;;;7.80;;
76729;SDS011;65653;53.106;18.046;2023-04-24T05:50:10;9.80;;;7.30;;
76729;SDS011;65653;53.106;18.046;2023-04-24T05:52:37;12.10;;;8.20;;
76729;SDS011;65653;53.106;18.046;2023-04-24T05:55:04;14.60;;;7.80;;
76729;SDS011;65653;53.106;18.046;2023-04-24T05:57:31;10.90;;;7.40;;
76729;SDS011;65653;53.106;18.046;2023-04-24T05:59:58;13.30;;;8.30;;
76729;SDS011;65653;53.106;18.046;2023-04-24T06:02:24;10.40;;;7.80;;
76729;SDS011;65653;53.106;18.046;2023-04-24T06:04:51;12.50;;;6.70;;
76729;SDS011;65653;53.106;18.046;2023-04-24T06:07:18;10.60;;;7.20;;
76729;SDS011;65653;53.106;18.046;2023-04-24T06:09:44;13.00;;;8.60;;
76729;SDS011;65653;53.106;18.046;2023-04-24T06:12:11;9.60;;;6.90;;
76729;SDS011;65653;53.106;18.046;2023-04-24T06:14:37;9.00;;;6.80;;
76729;SDS011;65653;53.106;18.046;2023-04-24T06:17:04;10.10;;;7.40;;
76729;SDS011;65653;53.106;18.046;2023-04-24T06:19:31;10.00;;;7.80;;
76729;SDS011;65653;53.106;18.046;2023-04-24T06:21:57;10.60;;;6.60;;
76729;SDS011;65653;53.106;18.046;2023-04-24T06:24:27;8.70;;;6.60;;
76729;SDS011;65653;53.106;18.046;2023-04-24T06:26:54;9.70;;;5.90;;
76729;SDS011;65653;53.106;18.046;2023-04-24T06:29:21;11.10;;;7.40;;
76729;SDS011;65653;53.106;18.046;2023-04-24T06:31:47;7.90;;;5.40;;
76729;SDS011;65653;53.106;18.046;2023-04-24T06:34:14;7.10;;;5.00;;
76729;SDS011;65653;53.106;18.046;2023-04-24T06:36:41;7.90;;;6.10;;
76729;SDS011;65653;53.106;18.046;2023-04-24T06:39:08;10.60;;;7.10;;
76729;SDS011;65653;53.106;18.046;2023-04-24T06:41:35;9.80;;;6.10;;
76729;SDS011;65653;53.106;18.046;2023-04-24T06:44:01;8.40;;;5.70;;
76729;SDS011;65653;53.106;18.046;2023-04-24T06:46:28;10.10;;;6.30;;
76729;SDS011;65653;53.106;18.046;2023-04-24T06:48:55;9.70;;;6.30;;
76729;SDS011;65653;53.106;18.046;2023-04-24T06:51:25;9.20;;;5.50;;
76729;SDS011;65653;53.106;18.046;2023-04-24T06:53:53;7.70;;;5.20;;
76729;SDS011;65653;53.106;18.046;2023-04-24T06:56:19;8.60;;;5.50;;
76729;SDS011;65653;53.106;18.046;2023-04-24T06:58:46;7.70;;;5.30;;
76729;SDS011;65653;53.106;18.046;2023-04-24T07:01:14;9.30;;;6.10;;
76729;SDS011;65653;53.106;18.046;2023-04-24T07:03:41;8.10;;;5.10;;
76729;SDS011;65653;53.106;18.046;2023-04-24T07:06:08;7.90;;;5.00;;
76729;SDS011;65653;53.106;18.046;2023-04-24T07:08:37;8.90;;;5.70;;
76729;SDS011;65653;53.106;18.046;2023-04-24T07:11:04;7.50;;;4.70;;
76729;SDS011;65653;53.106;18.046;2023-04-24T07:13:30;6.60;;;5.10;;
76729;SDS011;65653;53.106;18.046;2023-04-24T07:15:57;7.40;;;5.30;;
76729;SDS011;65653;53.106;18.046;2023-04-24T07:18:24;10.80;;;6.60;;
76729;SDS011;65653;53.106;18.046;2023-04-24T07:20:51;8.30;;;4.60;;
76729;SDS011;65653;53.106;18.046;2023-04-24T07:23:18;8.70;;;5.10;;
76729;SDS011;65653;53.106;18.046;2023-04-24T07:25:45;6.00;;;4.00;;
76729;SDS011;65653;53.106;18.046;2023-04-24T07:28:12;7.50;;;4.50;;
76729;SDS011;65653;53.106;18.046;2023-04-24T07:30:39;8.90;;;5.40;;
76729;SDS011;65653;53.106;18.046;2023-04-24T07:33:05;7.00;;;4.90;;
76729;SDS011;65653;53.106;18.046;2023-04-24T07:35:32;9.00;;;6.30;;
76729;SDS011;65653;53.106;18.046;2023-04-24T07:37:59;9.10;;;5.90;;
76729;SDS011;65653;53.106;18.046;2023-04-24T07:40:26;6.70;;;4.10;;
76729;SDS011;65653;53.106;18.046;2023-04-24T07:42:53;7.00;;;4.00;;
76729;SDS011;65653;53.106;18.046;2023-04-24T07:45:19;7.00;;;4.80;;
76729;SDS011;65653;53.106;18.046;2023-04-24T07:47:46;7.30;;;5.00;;
76729;SDS011;65653;53.106;18.046;2023-04-24T07:50:13;4.90;;;4.10;;
76729;SDS011;65653;53.106;18.046;2023-04-24T07:52:39;6.10;;;4.50;;
76729;SDS011;65653;53.106;18.046;2023-04-24T07:55:06;6.00;;;4.00;;
76729;SDS011;65653;53.106;18.046;2023-04-24T07:57:33;5.60;;;3.90;;
76729;SDS011;65653;53.106;18.046;2023-04-24T08:00:00;8.00;;;4.40;;
76729;SDS011;65653;53.106;18.046;2023-04-24T08:02:26;4.40;;;3.40;;
76729;SDS011;65653;53.106;18.046;2023-04-24T08:04:53;6.00;;;4.40;;
76729;SDS011;65653;53.106;18.046;2023-04-24T08:07:20;6.10;;;3.80;;
76729;SDS011;65653;53.106;18.046;2023-04-24T08:09:47;4.30;;;3.50;;
76729;SDS011;65653;53.106;18.046;2023-04-24T08:12:13;5.70;;;4.20;;
76729;SDS011;65653;53.106;18.046;2023-04-24T08:14:40;6.60;;;3.90;;
76729;SDS011;65653;53.106;18.046;2023-04-24T08:17:07;7.10;;;4.70;;
76729;SDS011;65653;53.106;18.046;2023-04-24T08:19:33;7.30;;;4.30;;
76729;SDS011;65653;53.106;18.046;2023-04-24T08:22:00;5.50;;;4.30;;
76729;SDS011;65653;53.106;18.046;2023-04-24T08:24:26;4.00;;;3.60;;
76729;SDS011;65653;53.106;18.046;2023-04-24T08:26:53;7.10;;;4.00;;
76729;SDS011;65653;53.106;18.046;2023-04-24T08:29:20;6.40;;;3.80;;
76729;SDS011;65653;53.106;18.046;2023-04-24T08:31:47;4.40;;;3.20;;
76729;SDS011;65653;53.106;18.046;2023-04-24T08:34:13;5.50;;;3.90;;
76729;SDS011;65653;53.106;18.046;2023-04-24T08:36:40;5.70;;;4.00;;
76729;SDS011;65653;53.106;18.046;2023-04-24T08:39:07;5.70;;;3.70;;
76729;SDS011;65653;53.106;18.046;2023-04-24T08:41:34;4.00;;;3.30;;
76729;SDS011;65653;53.106;18.046;2023-04-24T08:44:01;4.70;;;3.40;;
76729;SDS011;65653;53.106;18.046;2023-04-24T08:46:29;4.90;;;3.30;;
76729;SDS011;65653;53.106;18.046;2023-04-24T08:48:56;6.20;;;3.30;;
76729;SDS011;65653;53.106;18.046;2023-04-24T08:51:24;6.30;;;3.90;;
76729;SDS011;65653;53.106;18.046;2023-04-24T08:53:53;3.20;;;2.50;;
76729;SDS011;65653;53.106;18.046;2023-04-24T08:56:21;6.20;;;3.40;;
76729;SDS011;65653;53.106;18.046;2023-04-24T08:58:53;6.80;;;4.00;;
76729;SDS011;65653;53.106;18.046;2023-04-24T09:01:20;6.00;;;3.60;;
76729;SDS011;65653;53.106;18.046;2023-04-24T09:03:50;3.80;;;3.40;;
76729;SDS011;65653;53.106;18.046;2023-04-24T09:06:19;8.20;;;3.50;;
76729;SDS011;65653;53.106;18.046;2023-04-24T09:08:48;5.10;;;3.10;;
76729;SDS011;65653;53.106;18.046;2023-04-24T09:11:20;6.60;;;3.50;;
76729;SDS011;65653;53.106;18.046;2023-04-24T09:13:46;5.60;;;3.90;;
76729;SDS011;65653;53.106;18.046;2023-04-24T09:16:14;4.50;;;3.80;;
76729;SDS011;65653;53.106;18.046;2023-04-24T09:18:41;5.10;;;3.60;;
76729;SDS011;65653;53.106;18.046;2023-04-24T09:21:08;5.20;;;4.70;;
76729;SDS011;65653;53.106;18.046;2023-04-24T09:23:35;5.30;;;3.50;;
76729;SDS011;65653;53.106;18.046;2023-04-24T09:26:02;5.30;;;3.60;;
76729;SDS011;65653;53.106;18.046;2023-04-24T09:28:36;6.30;;;4.80;;
76729;SDS011;65653;53.106;18.046;2023-04-24T09:31:05;4.90;;;3.10;;
76729;SDS011;65653;53.106;18.046;2023-04-24T09:33:36;4.70;;;3.00;;
76729;SDS011;65653;53.106;18.046;2023-04-24T09:36:03;9.70;;;4.60;;
76729;SDS011;65653;53.106;18.046;2023-04-24T09:38:32;5.00;;;4.10;;
76729;SDS011;65653;53.106;18.046;2023-04-24T09:41:04;6.20;;;4.40;;
76729;SDS011;65653;53.106;18.046;2023-04-24T09:43:35;5.00;;;3.50;;
76729;SDS011;65653;53.106;18.046;2023-04-24T09:46:06;3.90;;;3.50;;
76729;SDS011;65653;53.106;18.046;2023-04-24T09:48:36;4.10;;;3.50;;
76729;SDS011;65653;53.106;18.046;2023-04-24T09:51:04;4.60;;;3.10;;
76729;SDS011;65653;53.106;18.046;2023-04-24T09:53:37;5.50;;;4.00;;
76729;SDS011;65653;53.106;18.046;2023-04-24T09:56:09;6.70;;;4.10;;
76729;SDS011;65653;53.106;18.046;2023-04-24T09:58:36;4.60;;;3.50;;
76729;SDS011;65653;53.106;18.046;2023-04-24T10:01:03;4.70;;;3.60;;
76729;SDS011;65653;53.106;18.046;2023-04-24T10:03:30;6.00;;;4.20;;
76729;SDS011;65653;53.106;18.046;2023-04-24T10:05:58;3.50;;;3.20;;
76729;SDS011;65653;53.106;18.046;2023-04-24T10:08:35;4.30;;;2.90;;
76729;SDS011;65653;53.106;18.046;2023-04-24T10:11:03;7.20;;;4.00;;
76729;SDS011;65653;53.106;18.046;2023-04-24T10:13:30;3.80;;;3.50;;
76729;SDS011;65653;53.106;18.046;2023-04-24T10:15:58;5.90;;;4.40;;
76729;SDS011;65653;53.106;18.046;2023-04-24T10:18:29;4.00;;;3.30;;
76729;SDS011;65653;53.106;18.046;2023-04-24T10:20:57;4.20;;;3.80;;
76729;SDS011;65653;53.106;18.046;2023-04-24T10:23:26;3.50;;;2.50;;
76729;SDS011;65653;53.106;18.046;2023-04-24T10:25:54;3.90;;;2.80;;
76729;SDS011;65653;53.106;18.046;2023-04-24T10:28:21;7.20;;;4.10;;
76729;SDS011;65653;53.106;18.046;2023-04-24T10:30:50;5.50;;;4.30;;
76729;SDS011;65653;53.106;18.046;2023-04-24T10:33:21;5.00;;;3.70;;
76729;SDS011;65653;53.106;18.046;2023-04-24T10:35:49;3.70;;;3.30;;
76729;SDS011;65653;53.106;18.046;2023-04-24T10:38:21;6.10;;;4.30;;
76729;SDS011;65653;53.106;18.046;2023-04-24T10:40:51;6.40;;;3.90;;
76729;SDS011;65653;53.106;18.046;2023-04-24T10:43:17;6.10;;;4.10;;
76729;SDS011;65653;53.106;18.046;2023-04-24T10:46:04;4.00;;;3.60;;
76729;SDS011;65653;53.106;18.046;2023-04-24T10:48:32;4.80;;;3.00;;
76729;SDS011;65653;53.106;18.046;2023-04-24T10:51:00;4.40;;;2.80;;
76729;SDS011;65653;53.106;18.046;2023-04-24T10:53:28;3.60;;;3.20;;
76729;SDS011;65653;53.106;18.046;2023-04-24T10:56:06;5.30;;;4.40;;
76729;SDS011;65653;53.106;18.046;2023-04-24T10:58:41;4.40;;;4.00;;
76729;SDS011;65653;53.106;18.046;2023-04-24T11:01:25;6.20;;;3.70;;
76729;SDS011;65653;53.106;18.046;2023-04-24T11:04:04;4.70;;;4.20;;
76729;SDS011;65653;53.106;18.046;2023-04-24T11:06:31;4.00;;;3.40;;
76729;SDS011;65653;53.106;18.046;2023-04-24T11:09:08;6.80;;;4.30;;
76729;SDS011;65653;53.106;18.046;2023-04-24T11:11:36;4.70;;;4.20;;
76729;SDS011;65653;53.106;18.046;2023-04-24T11:14:06;6.40;;;4.30;;
76729;SDS011;65653;53.106;18.046;2023-04-24T11:16:35;6.70;;;5.20;;
76729;SDS011;65653;53.106;18.046;2023-04-24T11:19:06;5.10;;;4.60;;
76729;SDS011;65653;53.106;18.046;2023-04-24T11:26:50;6.80;;;5.90;;
76729;SDS011;65653;53.106;18.046;2023-04-24T11:29:20;6.70;;;5.20;;
76729;SDS011;65653;53.106;18.046;2023-04-24T11:31:47;6.50;;;5.10;;
76729;SDS011;65653;53.106;18.046;2023-04-24T11:34:16;7.50;;;5.20;;
76729;SDS011;65653;53.106;18.046;2023-04-24T11:36:44;4.60;;;4.20;;
76729;SDS011;65653;53.106;18.046;2023-04-24T11:39:11;5.80;;;5.30;;
76729;SDS011;65653;53.106;18.046;2023-04-24T11:41:38;5.50;;;4.40;;
76729;SDS011;65653;53.106;18.046;2023-04-24T11:44:08;5.40;;;4.40;;
76729;SDS011;65653;53.106;18.046;2023-04-24T11:46:36;5.30;;;4.60;;
76729;SDS011;65653;53.106;18.046;2023-04-24T11:49:04;6.90;;;6.00;;
76729;SDS011;65653;53.106;18.046;2023-04-24T11:51:30;6.40;;;5.50;;
76729;SDS011;65653;53.106;18.046;2023-04-24T11:53:58;7.70;;;5.20;;
76729;SDS011;65653;53.106;18.046;2023-04-24T11:56:24;5.50;;;4.70;;
76729;SDS011;65653;53.106;18.046;2023-04-24T11:58:52;6.80;;;5.30;;
76729;SDS011;65653;53.106;18.046;2023-04-24T12:01:22;4.80;;;4.10;;
76729;SDS011;65653;53.106;18.046;2023-04-24T12:03:49;6.00;;;4.40;;
76729;SDS011;65653;53.106;18.046;2023-04-24T12:06:17;4.70;;;4.30;;
76729;SDS011;65653;53.106;18.046;2023-04-24T12:08:48;6.70;;;4.00;;
76729;SDS011;65653;53.106;18.046;2023-04-24T12:11:20;3.80;;;3.40;;
76729;SDS011;65653;53.106;18.046;2023-04-24T12:13:47;5.40;;;4.00;;
76729;SDS011;65653;53.106;18.046;2023-04-24T12:16:13;4.30;;;3.50;;
76729;SDS011;65653;53.106;18.046;2023-04-24T12:18:44;5.20;;;4.20;;
76729;SDS011;65653;53.106;18.046;2023-04-24T12:21:17;4.90;;;3.70;;
76729;SDS011;65653;53.106;18.046;2023-04-24T12:23:46;4.20;;;2.70;;
76729;SDS011;65653;53.106;18.046;2023-04-24T12:26:16;5.10;;;4.00;;
76729;SDS011;65653;53.106;18.046;2023-04-24T12:28:46;4.30;;;3.50;;
76729;SDS011;65653;53.106;18.046;2023-04-24T12:31:15;4.00;;;3.60;;
76729;SDS011;65653;53.106;18.046;2023-04-24T12:33:43;3.30;;;3.00;;
76729;SDS011;65653;53.106;18.046;2023-04-24T12:36:10;2.90;;;2.50;;
76729;SDS011;65653;53.106;18.046;2023-04-24T12:38:38;4.40;;;3.00;;
76729;SDS011;65653;53.106;18.046;2023-04-24T12:41:11;3.70;;;3.20;;
76729;SDS011;65653;53.106;18.046;2023-04-24T12:43:50;5.30;;;3.00;;
76729;SDS011;65653;53.106;18.046;2023-04-24T12:46:30;2.90;;;2.70;;
76729;SDS011;65653;53.106;18.046;2023-04-24T12:48:57;4.00;;;2.50;;
76729;SDS011;65653;53.106;18.046;2023-04-24T12:51:24;6.00;;;3.40;;
76729;SDS011;65653;53.106;18.046;2023-04-24T12:53:51;3.80;;;2.60;;
76729;SDS011;65653;53.106;18.046;2023-04-24T12:56:17;4.30;;;2.90;;
76729;SDS011;65653;53.106;18.046;2023-04-24T12:58:44;5.10;;;3.10;;
76729;SDS011;65653;53.106;18.046;2023-04-24T13:01:10;3.20;;;2.20;;
76729;SDS011;65653;53.106;18.046;2023-04-24T13:03:39;2.60;;;2.40;;
76729;SDS011;65653;53.106;18.046;2023-04-24T13:06:06;3.50;;;2.10;;
76729;SDS011;65653;53.106;18.046;2023-04-24T13:08:33;2.40;;;2.10;;
76729;SDS011;65653;53.106;18.046;2023-04-24T13:10:59;4.80;;;2.80;;
76729;SDS011;65653;53.106;18.046;2023-04-24T13:13:26;2.40;;;2.20;;
76729;SDS011;65653;53.106;18.046;2023-04-24T13:15:55;2.80;;;2.60;;
76729;SDS011;65653;53.106;18.046;2023-04-24T13:18:22;4.10;;;2.40;;
76729;SDS011;65653;53.106;18.046;2023-04-24T13:20:48;6.00;;;3.20;;
76729;SDS011;65653;53.106;18.046;2023-04-24T13:23:15;3.90;;;3.10;;
76729;SDS011;65653;53.106;18.046;2023-04-24T13:25:42;5.30;;;3.30;;
76729;SDS011;65653;53.106;18.046;2023-04-24T13:28:08;5.00;;;3.30;;
76729;SDS011;65653;53.106;18.046;2023-04-24T13:30:35;4.40;;;3.50;;
76729;SDS011;65653;53.106;18.046;2023-04-24T13:33:03;5.10;;;4.10;;
76729;SDS011;65653;53.106;18.046;2023-04-24T13:35:30;5.80;;;4.40;;
76729;SDS011;65653;53.106;18.046;2023-04-24T13:37:57;6.20;;;5.60;;
76729;SDS011;65653;53.106;18.046;2023-04-24T13:40:24;4.50;;;3.70;;
76729;SDS011;65653;53.106;18.046;2023-04-24T13:42:50;5.60;;;5.10;;
76729;SDS011;65653;53.106;18.046;2023-04-24T13:45:17;6.20;;;4.80;;
76729;SDS011;65653;53.106;18.046;2023-04-24T13:47:43;5.10;;;4.40;;
76729;SDS011;65653;53.106;18.046;2023-04-24T13:50:10;5.90;;;4.20;;
76729;SDS011;65653;53.106;18.046;2023-04-24T13:52:36;7.10;;;3.80;;
76729;SDS011;65653;53.106;18.046;2023-04-24T13:55:18;4.50;;;3.50;;
76729;SDS011;65653;53.106;18.046;2023-04-24T13:57:45;3.80;;;3.30;;
76729;SDS011;65653;53.106;18.046;2023-04-24T14:00:12;2.90;;;2.60;;
76729;SDS011;65653;53.106;18.046;2023-04-24T14:02:39;4.50;;;3.80;;
76729;SDS011;65653;53.106;18.046;2023-04-24T14:05:06;2.30;;;2.10;;
76729;SDS011;65653;53.106;18.046;2023-04-24T14:07:32;4.20;;;2.90;;
76729;SDS011;65653;53.106;18.046;2023-04-24T14:09:59;4.00;;;3.60;;
76729;SDS011;65653;53.106;18.046;2023-04-24T14:12:38;3.90;;;3.00;;
76729;SDS011;65653;53.106;18.046;2023-04-24T14:15:06;4.30;;;2.60;;
76729;SDS011;65653;53.106;18.046;2023-04-24T14:17:33;3.70;;;3.30;;
76729;SDS011;65653;53.106;18.046;2023-04-24T14:20:02;5.00;;;3.70;;
76729;SDS011;65653;53.106;18.046;2023-04-24T14:22:33;4.20;;;3.60;;
76729;SDS011;65653;53.106;18.046;2023-04-24T14:24:59;5.20;;;4.00;;
76729;SDS011;65653;53.106;18.046;2023-04-24T14:27:26;4.00;;;3.10;;
76729;SDS011;65653;53.106;18.046;2023-04-24T14:29:53;5.00;;;3.20;;
76729;SDS011;65653;53.106;18.046;2023-04-24T14:32:19;4.10;;;3.70;;
76729;SDS011;65653;53.106;18.046;2023-04-24T14:34:46;4.30;;;3.50;;
76729;SDS011;65653;53.106;18.046;2023-04-24T14:47:48;2.60;;;2.40;;
76729;SDS011;65653;53.106;18.046;2023-04-24T14:50:15;2.50;;;2.30;;
76729;SDS011;65653;53.106;18.046;2023-04-24T14:52:42;2.40;;;2.10;;
76729;SDS011;65653;53.106;18.046;2023-04-24T14:55:08;2.60;;;2.30;;
76729;SDS011;65653;53.106;18.046;2023-04-24T14:57:35;2.20;;;2.00;;